Time;durP1;ratioP1;P1;durP2;ratioP2;P2;SDS_P1;SDS_P2;PMS_P1;PMS_P2;Temp;Humidity;BMP_temperature;BMP_pressure;BME280_temperature;BME280_humidity;BME280_pressure;Samples;Min_cycle;Max_cycle;Signal;HPM_P1;HPM_P2
2023/01/05 00:01:12;;;;;;;28.12;16.20;;;;;;;2.90;72.97;101372.92;1826080;77;20947;-90
2023/01/05 00:03:39;;;;;;;19.82;11.45;;;;;;;2.92;73.05;101370.32;1817841;77;20935;-89
2023/01/05 00:06:11;;;;;;;20.17;12.13;;;;;;;2.93;73.29;101366.83;1806973;77;20932;-88
2023/01/05 00:08:38;;;;;;;22.62;12.58;;;;;;;2.94;73.07;101355.16;1821411;77;20883;-89
2023/01/05 00:22:31;;;;;;;14.23;8.25;;;;;;;2.84;72.24;101341.48;1812728;77;20872;-88
2023/01/05 00:25:04;;;;;;;12.58;8.90;;;;;;;2.79;72.31;101333.39;1816104;77;21148;-87
2023/01/05 00:27:31;;;;;;;12.95;9.08;;;;;;;2.75;72.40;101333.87;1799266;77;21298;-87
2023/01/05 00:29:59;;;;;;;15.88;8.35;;;;;;;2.75;72.53;101327.39;1823319;77;21401;-89
2023/01/05 00:32:26;;;;;;;13.70;9.13;;;;;;;2.76;72.58;101321.77;1835996;77;20880;-86
2023/01/05 00:35:00;;;;;;;12.40;8.20;;;;;;;2.75;72.71;101324.80;1808315;77;20867;-88
2023/01/05 00:37:30;;;;;;;11.43;7.75;;;;;;;2.74;72.81;101327.44;1821733;77;21799;-87
2023/01/05 00:39:56;;;;;;;9.73;7.58;;;;;;;2.74;72.81;101320.97;1818164;77;21057;-87
2023/01/05 00:42:23;;;;;;;11.93;7.22;;;;;;;2.69;72.88;101318.01;1825080;77;20919;-88
2023/01/05 00:44:51;;;;;;;12.73;7.92;;;;;;;2.67;72.98;101313.73;1827783;77;20911;-89
2023/01/05 00:47:22;;;;;;;9.73;7.30;;;;;;;2.64;73.12;101318.95;1806008;77;21475;-90
2023/01/05 00:49:48;;;;;;;10.65;6.95;;;;;;;2.61;73.34;101306.91;1826361;77;21340;-89
2023/01/05 00:52:15;;;;;;;8.88;5.75;;;;;;;2.63;73.53;101296.53;1818187;77;20932;-90
2023/01/05 00:54:42;;;;;;;10.13;6.55;;;;;;;2.67;73.75;101295.16;1837423;77;20911;-91
2023/01/05 00:57:12;;;;;;;9.20;6.75;;;;;;;2.67;73.87;101296.46;1824285;77;21057;-89
2023/01/05 00:59:39;;;;;;;7.25;5.12;;;;;;;2.68;74.10;101286.50;1833068;77;21006;-88
2023/01/05 01:02:06;;;;;;;15.90;6.92;;;;;;;2.69;74.21;101288.23;1804695;78;21479;-88
2023/01/05 01:04:33;;;;;;;8.83;5.83;;;;;;;2.71;74.30;101286.88;1811570;77;20939;-89
2023/01/05 01:06:59;;;;;;;8.90;6.20;;;;;;;2.71;74.39;101289.47;1804653;77;20959;-89
2023/01/05 01:09:26;;;;;;;9.03;5.28;;;;;;;2.70;74.47;101274.38;1825842;77;20988;-87
2023/01/05 01:11:53;;;;;;;7.85;5.58;;;;;;;2.74;74.53;101278.23;1838921;77;21460;-89
2023/01/05 01:14:19;;;;;;;6.45;4.33;;;;;;;2.72;74.70;101275.66;1832314;77;21264;-87
2023/01/05 01:16:48;;;;;;;6.95;4.90;;;;;;;2.72;74.91;101268.34;1791245;79;20930;-90
2023/01/05 01:19:19;;;;;;;5.40;4.90;;;;;;;2.72;75.08;101256.24;1761151;80;20959;-89
2023/01/05 01:21:46;;;;;;;9.55;5.72;;;;;;;2.74;75.28;101260.11;1744183;80;21030;-89
2023/01/05 01:24:25;;;;;;;11.22;6.42;;;;;;;2.76;75.24;101261.78;1742265;80;21771;-88
2023/01/05 01:26:51;;;;;;;9.43;5.97;;;;;;;2.80;75.16;101258.27;1741082;81;21471;-88
2023/01/05 01:29:18;;;;;;;9.60;5.78;;;;;;;2.81;75.11;101250.05;1747977;80;20845;-89
2023/01/05 01:31:51;;;;;;;8.10;4.55;;;;;;;2.82;75.06;101244.82;1742136;80;20896;-88
2023/01/05 01:34:19;;;;;;;7.00;5.37;;;;;;;2.81;75.11;101234.51;1741679;80;21118;-89
2023/01/05 01:36:45;;;;;;;5.75;4.97;;;;;;;2.82;75.24;101225.84;1751421;80;21058;-87
2023/01/05 01:39:13;;;;;;;7.80;5.08;;;;;;;2.81;75.40;101215.93;1811024;77;22327;-89
2023/01/05 01:41:45;;;;;;;7.25;4.85;;;;;;;2.83;75.50;101223.69;1830653;77;21440;-89
2023/01/05 01:44:55;;;;;;;14.63;7.35;;;;;;;2.85;75.51;101224.52;1837411;77;20895;-88
2023/01/05 01:47:41;;;;;;;18.75;10.43;;;;;;;2.87;75.48;101209.35;1769257;79;20891;-87
2023/01/05 01:50:15;;;;;;;14.93;8.40;;;;;;;2.89;75.29;101206.70;1828029;77;20998;-87
2023/01/05 01:52:44;;;;;;;14.43;7.85;;;;;;;2.86;75.12;101201.59;1794065;77;21261;-86
2023/01/05 01:55:11;;;;;;;8.75;5.72;;;;;;;2.82;75.16;101187.84;1819233;77;21500;-88
2023/01/05 01:57:38;;;;;;;7.58;5.45;;;;;;;2.79;75.30;101188.36;1806225;77;20930;-88
2023/01/05 02:00:07;;;;;;;6.00;5.30;;;;;;;2.78;75.44;101194.41;1814252;77;20936;-87
2023/01/05 02:02:37;;;;;;;8.70;6.30;;;;;;;2.75;75.65;101197.06;1788179;79;21035;-88
2023/01/05 02:05:07;;;;;;;8.85;6.08;;;;;;;2.74;75.84;101194.07;1811964;77;21156;-88
2023/01/05 02:07:38;;;;;;;16.02;10.50;;;;;;;2.76;75.83;101202.22;1806491;77;20974;-90
2023/01/05 02:10:06;;;;;;;9.23;5.62;;;;;;;2.77;75.82;101200.48;1830777;77;21417;-88
2023/01/05 02:12:49;;;;;;;5.08;3.60;;;;;;;2.76;75.70;101202.22;1834877;77;20915;-88
2023/01/05 02:15:35;;;;;;;5.78;4.35;;;;;;;2.74;75.67;101197.51;1812357;77;20935;-89
2023/01/05 02:18:21;;;;;;;7.40;4.80;;;;;;;2.70;75.69;101186.78;1823618;77;21445;-88
2023/01/05 02:21:20;;;;;;;6.42;4.78;;;;;;;2.68;75.82;101185.96;1839423;77;20982;-89
2023/01/05 02:24:20;;;;;;;5.50;3.90;;;;;;;2.63;75.89;101175.69;1834533;77;20928;-89
2023/01/05 02:27:01;;;;;;;9.23;5.42;;;;;;;2.59;75.92;101172.73;1831877;77;20884;-88
2023/01/05 02:29:37;;;;;;;13.83;7.12;;;;;;;2.56;75.89;101163.74;1807709;77;20833;-88
2023/01/05 02:32:32;;;;;;;9.65;5.50;;;;;;;2.53;75.88;101166.37;1826713;77;20995;-88
2023/01/05 02:35:25;;;;;;;6.92;4.65;;;;;;;2.49;75.72;101163.45;1840797;77;20920;-85
2023/01/05 02:38:17;;;;;;;6.28;3.80;;;;;;;2.43;75.79;101154.04;1822524;77;20967;-88
2023/01/05 02:40:51;;;;;;;5.17;4.25;;;;;;;2.40;75.96;101142.46;1806847;77;21380;-87
2023/01/05 02:43:21;;;;;;;8.15;3.40;;;;;;;2.36;75.99;101137.37;1843729;77;20919;-88
2023/01/05 02:45:48;;;;;;;6.42;4.22;;;;;;;2.32;75.95;101137.84;1831084;77;21141;-88
2023/01/05 02:48:15;;;;;;;8.43;4.78;;;;;;;2.28;75.92;101127.13;1836978;77;20979;-88
2023/01/05 02:51:00;;;;;;;5.70;3.80;;;;;;;2.25;75.90;101124.61;1824024;77;21125;-88
2023/01/05 02:53:36;;;;;;;10.20;5.15;;;;;;;2.23;75.86;101127.66;1816393;77;20967;-89
2023/01/05 02:56:11;;;;;;;7.20;4.78;;;;;;;2.19;75.86;101115.20;1822051;77;20892;-88
2023/01/05 02:58:42;;;;;;;6.30;4.78;;;;;;;2.16;75.94;101115.27;1824329;77;21259;-90
2023/01/05 03:01:13;;;;;;;8.38;5.35;;;;;;;2.16;76.04;101110.55;1783681;77;20995;-90
2023/01/05 03:04:04;;;;;;;7.05;5.00;;;;;;;2.17;76.09;101108.36;1821756;77;20944;-89
2023/01/05 03:06:45;;;;;;;6.33;4.60;;;;;;;2.19;75.99;101099.68;1797549;77;20896;-90
2023/01/05 03:09:08;;;;;;;6.28;5.05;;;;;;;2.22;75.80;101099.65;1838170;77;21423;-89
2023/01/05 03:15:02;;;;;;;6.85;5.17;;;;;;;2.18;75.68;101083.77;1803807;77;20915;-87
2023/01/05 03:17:44;;;;;;;7.03;4.22;;;;;;;2.18;75.71;101080.30;1799201;78;20912;-87
2023/01/05 03:20:15;;;;;;;5.78;3.85;;;;;;;2.18;75.71;101079.00;1829268;77;20861;-89
2023/01/05 03:37:50;;;;;;;7.72;5.15;;;;;;;2.29;75.13;101058.98;1812212;77;20924;-88
2023/01/05 03:40:24;;;;;;;8.50;5.62;;;;;;;2.25;75.02;101055.59;1822937;77;21211;-88
2023/01/05 03:42:54;;;;;;;7.85;4.22;;;;;;;2.24;74.97;101044.81;1835777;77;21421;-88
2023/01/05 03:45:22;;;;;;;8.50;4.60;;;;;;;2.23;74.98;101054.77;1840467;77;21427;-88
2023/01/05 03:47:50;;;;;;;5.70;3.90;;;;;;;2.23;74.87;101051.33;1821967;77;20923;-88
2023/01/05 03:50:20;;;;;;;6.17;4.70;;;;;;;2.23;74.89;101049.59;1839683;77;20971;-90
2023/01/05 03:52:47;;;;;;;10.72;5.42;;;;;;;2.24;74.93;101044.81;1828975;77;21700;-90
2023/01/05 03:55:14;;;;;;;9.20;4.78;;;;;;;2.26;74.99;101037.03;1832519;77;20987;-89
2023/01/05 03:57:42;;;;;;;7.47;4.58;;;;;;;2.28;74.98;101040.45;1817521;77;20928;-89
2023/01/05 04:00:11;;;;;;;6.55;4.70;;;;;;;2.31;74.76;101037.78;1839398;77;20904;-89
2023/01/05 04:02:52;;;;;;;8.08;5.05;;;;;;;2.31;74.65;101033.06;1753890;80;21020;-89
2023/01/05 04:05:20;;;;;;;6.80;4.83;;;;;;;2.30;74.52;101028.78;1757034;80;21840;-90
2023/01/05 04:07:49;;;;;;;8.53;4.75;;;;;;;2.26;74.45;101020.21;1818374;77;20909;-89
2023/01/05 04:10:16;;;;;;;8.05;4.60;;;;;;;2.26;74.45;101021.06;1830153;77;20979;-89
2023/01/05 04:12:46;;;;;;;10.43;5.95;;;;;;;2.22;74.45;101014.68;1819465;77;20899;-88
2023/01/05 04:15:13;;;;;;;8.73;5.20;;;;;;;2.20;74.51;101014.73;1815244;77;20924;-89
2023/01/05 04:17:40;;;;;;;6.62;3.87;;;;;;;2.20;74.55;101019.91;1828930;77;21465;-89
2023/01/05 04:20:10;;;;;;;8.45;4.15;;;;;;;2.19;74.60;101016.05;1813454;77;21073;-90
2023/01/05 04:22:39;;;;;;;4.50;3.95;;;;;;;2.18;74.59;101013.03;1821524;77;20944;-90
2023/01/05 04:25:08;;;;;;;5.90;3.62;;;;;;;2.19;74.64;101009.58;1807050;77;20888;-88
2023/01/05 04:27:35;;;;;;;4.85;3.58;;;;;;;2.20;74.61;101002.21;1825593;77;20962;-88
2023/01/05 04:30:06;;;;;;;3.98;3.35;;;;;;;2.20;74.56;101009.55;1813661;77;20951;-89
2023/01/05 04:32:36;;;;;;;5.05;3.45;;;;;;;2.21;74.57;101007.81;1819262;76;20915;-87
2023/01/05 04:35:03;;;;;;;4.12;3.22;;;;;;;2.20;74.59;101010.85;1805377;77;20915;-89
2023/01/05 04:37:34;;;;;;;4.22;3.15;;;;;;;2.22;74.62;100999.16;1784111;78;21158;-90
2023/01/05 04:40:01;;;;;;;6.30;3.37;;;;;;;2.23;74.58;100995.70;1830618;77;20951;-89
2023/01/05 04:42:30;;;;;;;6.42;3.27;;;;;;;2.25;74.64;100984.44;1833967;77;22596;-89
2023/01/05 04:44:58;;;;;;;4.92;3.08;;;;;;;2.27;74.54;100982.67;1810890;77;21130;-87
2023/01/05 04:47:25;;;;;;;5.03;3.67;;;;;;;2.28;74.54;100980.93;1810249;77;21470;-87
2023/01/05 04:49:51;;;;;;;6.20;3.55;;;;;;;2.32;74.57;100973.97;1810729;77;21590;-88
2023/01/05 04:52:18;;;;;;;5.75;3.98;;;;;;;2.34;74.40;100965.28;1812415;77;20963;-88
2023/01/05 04:54:45;;;;;;;5.40;3.47;;;;;;;2.37;74.25;100962.63;1806925;77;21104;-89
2023/01/05 04:57:13;;;;;;;4.75;3.17;;;;;;;2.38;74.04;100960.88;1833109;77;20982;-89
2023/01/05 04:59:39;;;;;;;4.83;3.20;;;;;;;2.38;73.96;100956.58;1795373;78;20966;-88
2023/01/05 05:02:11;;;;;;;3.47;2.90;;;;;;;2.36;73.90;100947.16;1811491;77;20900;-89
2023/01/05 05:04:38;;;;;;;3.40;2.60;;;;;;;2.35;73.89;100947.56;1821516;77;20964;-90
2023/01/05 05:07:06;;;;;;;4.20;2.83;;;;;;;2.31;73.87;100939.91;1816502;77;21163;-88
2023/01/05 05:09:36;;;;;;;3.17;2.72;;;;;;;2.28;73.83;100930.02;1812518;77;20900;-88
2023/01/05 05:12:04;;;;;;;4.17;3.10;;;;;;;2.25;73.84;100916.31;1810426;77;21714;-87
2023/01/05 05:14:31;;;;;;;4.80;3.15;;;;;;;2.23;73.89;100904.70;1826345;77;21553;-88
2023/01/05 05:17:01;;;;;;;3.17;2.87;;;;;;;2.22;73.93;100899.55;1811596;77;20923;-87
2023/01/05 05:21:29;;;;;;;4.55;3.15;;;;;;;2.25;74.03;100878.80;1805647;76;23337;-90
2023/01/05 05:23:57;;;;;;;4.87;3.52;;;;;;;2.18;74.14;100878.08;1750919;78;20887;-89
2023/01/05 05:26:23;;;;;;;6.87;3.52;;;;;;;2.19;74.23;100872.45;1791559;77;21167;-90
2023/01/05 05:28:51;;;;;;;4.25;2.90;;;;;;;2.18;74.27;100859.09;1813346;77;21072;-91
2023/01/05 05:31:17;;;;;;;4.55;2.85;;;;;;;2.17;74.32;100849.19;1798596;77;21374;-89
2023/01/05 05:33:44;;;;;;;3.92;3.52;;;;;;;2.15;74.43;100849.67;1791427;77;20918;-89
2023/01/05 05:36:10;;;;;;;3.52;2.80;;;;;;;2.12;74.67;100848.90;1805274;77;20888;-89
2023/01/05 05:38:38;;;;;;;3.72;3.02;;;;;;;2.13;74.77;100847.55;1800460;77;21224;-89
2023/01/05 05:41:04;;;;;;;2.92;2.42;;;;;;;2.11;74.91;100841.55;1808931;77;20904;-89
2023/01/05 05:43:32;;;;;;;3.27;2.22;;;;;;;2.08;75.01;100829.55;1795165;77;21401;-87
2023/01/05 05:45:58;;;;;;;3.33;3.00;;;;;;;2.07;75.15;100830.89;1800146;77;20853;-89
2023/01/05 05:48:25;;;;;;;4.95;3.02;;;;;;;2.05;75.24;100821.86;1803060;77;20948;-91
2023/01/05 05:50:52;;;;;;;3.25;3.02;;;;;;;2.03;75.21;100828.80;1804047;77;21168;-90
2023/01/05 05:53:19;;;;;;;2.80;2.37;;;;;;;2.03;75.23;100827.95;1797135;80;20879;-87
2023/01/05 05:55:49;;;;;;;3.27;2.67;;;;;;;2.01;75.35;100821.52;1801040;77;20954;-90
2023/01/05 05:58:22;;;;;;;5.37;2.20;;;;;;;2.01;75.43;100826.69;1795830;77;20912;-90
2023/01/05 06:00:50;;;;;;;2.75;2.47;;;;;;;2.02;75.52;100810.30;1798551;77;20922;-91
2023/01/05 06:03:19;;;;;;;6.17;2.90;;;;;;;2.02;75.59;100806.42;1797204;78;21239;-90
2023/01/05 06:05:46;;;;;;;5.00;2.52;;;;;;;2.03;75.66;100804.68;1805602;78;21354;-89
2023/01/05 06:08:14;;;;;;;3.00;2.40;;;;;;;2.06;75.73;100789.08;1805531;77;20952;-90
2023/01/05 06:10:40;;;;;;;3.20;2.42;;;;;;;2.10;75.78;100788.59;1803433;77;21023;-88
2023/01/05 06:13:08;;;;;;;4.87;3.20;;;;;;;2.12;75.86;100782.48;1788817;77;20864;-91
2023/01/05 06:15:37;;;;;;;7.85;3.40;;;;;;;2.15;75.92;100786.73;1795307;78;21140;-92
2023/01/05 06:18:05;;;;;;;4.75;3.15;;;;;;;2.18;75.89;100789.24;1806826;77;20882;-91
2023/01/05 06:20:34;;;;;;;4.60;3.12;;;;;;;2.20;75.97;100777.13;1795546;77;21533;-89
2023/01/05 06:23:00;;;;;;;4.47;3.47;;;;;;;2.22;76.01;100771.47;1791116;77;21303;-91
2023/01/05 06:25:27;;;;;;;5.58;3.80;;;;;;;2.22;76.18;100766.30;1811685;77;20860;-87
2023/01/05 06:27:54;;;;;;;4.47;3.40;;;;;;;2.24;76.36;100767.12;1800961;77;21080;-91
2023/01/05 06:30:23;;;;;;;8.93;6.90;;;;;;;2.25;76.49;100764.50;1811372;77;20955;-88
2023/01/05 06:32:52;;;;;;;25.92;15.70;;;;;;;2.27;76.67;100760.14;1784269;77;20943;-88
2023/01/05 06:35:19;;;;;;;22.98;13.75;;;;;;;2.32;76.73;100755.31;1789276;77;21364;-86
2023/01/05 06:37:45;;;;;;;9.43;6.58;;;;;;;2.35;76.77;100742.28;1796322;77;20909;-87
2023/01/05 06:40:12;;;;;;;5.87;5.15;;;;;;;2.41;76.72;100740.85;1805190;77;21283;-88
2023/01/05 06:42:40;;;;;;;7.00;4.95;;;;;;;2.45;76.69;100727.80;1810887;78;20944;-87
2023/01/05 06:45:09;;;;;;;7.00;4.70;;;;;;;2.51;76.64;100718.17;1753474;79;20939;-89
2023/01/05 06:47:36;;;;;;;5.75;4.17;;;;;;;2.56;76.64;100717.18;1730370;80;20876;-90
2023/01/05 06:50:06;;;;;;;6.25;4.08;;;;;;;2.61;76.66;100706.25;1808907;77;20967;-88
2023/01/05 06:52:35;;;;;;;6.78;4.65;;;;;;;2.70;76.59;100699.98;1793727;77;21189;-90
2023/01/05 06:55:05;;;;;;;6.05;4.37;;;;;;;2.75;76.43;100692.09;1802852;77;20901;-89
2023/01/05 06:57:35;;;;;;;6.37;4.00;;;;;;;2.77;76.40;100683.39;1805512;77;20971;-90
2023/01/05 07:00:10;;;;;;;6.85;3.98;;;;;;;2.79;76.49;100667.83;1799413;77;20950;-89
2023/01/05 07:02:38;;;;;;;7.35;4.03;;;;;;;2.79;76.51;100671.25;1794984;77;21380;-87
2023/01/05 07:05:06;;;;;;;5.42;3.40;;;;;;;2.80;76.67;100663.91;1794573;77;21206;-91
2023/01/05 12:07:47;;;;;;;13.88;10.28;;;;;;;5.34;96.29;99970.59;1648998;83;21170;-96
2023/01/05 12:11:14;;;;;;;14.90;10.05;;;;;;;5.29;95.98;99947.42;1557263;87;21009;-96
2023/01/05 12:20:24;;;;;;;11.65;8.75;;;;;;;5.54;95.34;99941.01;1522540;91;21008;-96
2023/01/05 12:23:44;;;;;;;15.23;9.53;;;;;;;5.56;95.11;99926.17;1437445;97;20968;-95
2023/01/05 12:52:02;;;;;;;14.30;10.95;;;;;;;5.81;95.25;99890.16;1510548;90;21514;-94
2023/01/05 13:10:56;;;;;;;17.82;11.65;;;;;;;5.96;95.15;99877.32;1508092;92;21041;-96
2023/01/05 13:17:04;;;;;;;15.28;10.90;;;;;;;5.99;95.18;99864.96;1448186;93;21101;-94
2023/01/05 13:39:46;;;;;;;15.60;9.50;;;;;;;5.97;93.66;99830.38;1311335;103;21328;-96
2023/01/05 13:43:03;;;;;;;15.40;11.30;;;;;;;5.96;93.70;99833.08;1310027;106;21062;-96
2023/01/05 13:53:25;;;;;;;9.60;7.20;;;;;;;5.79;92.84;99786.63;1445144;97;21177;-96
2023/01/05 13:56:15;;;;;;;10.08;7.20;;;;;;;5.90;92.34;99799.54;1424542;99;21036;-96
2023/01/05 13:59:29;;;;;;;12.40;6.75;;;;;;;5.86;91.30;99805.36;1441448;96;21182;-95
2023/01/05 14:09:12;;;;;;;11.25;7.83;;;;;;;5.78;91.66;99777.59;1351755;101;21058;-96
2023/01/05 14:12:36;;;;;;;;;;;;;;;;;;;;;
2023/01/05 14:50:32;;;;;;;11.10;8.15;;;;;;;5.45;93.62;99712.19;1325979;101;21062;-94
2023/01/05 15:03:46;;;;;;;12.93;7.97;;;;;;;5.48;93.83;99686.48;1368797;100;21148;-96
2023/01/05 15:10:33;;;;;;;10.80;8.30;;;;;;;5.54;94.06;99687.45;1402263;97;21139;-96
2023/01/05 15:26:44;;;;;;;12.75;9.95;;;;;;;5.58;94.40;99661.63;1428798;97;21020;-96
2023/01/05 15:29:57;;;;;;;14.60;9.18;;;;;;;5.58;94.46;99659.90;1344837;101;21072;31
2023/01/05 15:32:33;;;;;;;16.27;10.28;;;;;;;5.58;94.49;99669.00;1372014;101;21019;-95
2023/01/05 15:35:54;;;;;;;13.80;9.55;;;;;;;5.62;94.50;99681.35;1371384;102;21036;-96
2023/01/05 15:38:33;;;;;;;11.73;9.03;;;;;;;5.64;94.51;99670.41;1447595;95;21105;-96
2023/01/05 15:41:15;;;;;;;14.25;9.53;;;;;;;5.65;94.50;99672.10;1438983;97;20980;-94
2023/01/05 15:44:06;;;;;;;11.68;8.80;;;;;;;5.66;94.57;99670.33;1438812;97;21087;-95
2023/01/05 15:46:37;;;;;;;11.70;8.95;;;;;;;5.67;94.55;99674.16;1396258;99;21213;-94
2023/01/05 15:49:23;;;;;;;10.63;8.25;;;;;;;5.67;94.55;99674.16;1425454;98;20911;-95
2023/01/05 15:51:54;;;;;;;12.25;8.40;;;;;;;5.67;94.47;99676.77;1466343;95;21068;-95
2023/01/05 15:54:25;;;;;;;11.70;9.63;;;;;;;5.68;94.54;99681.02;1467833;94;21303;-93
2023/01/05 15:56:52;;;;;;;13.40;10.32;;;;;;;5.68;94.60;99667.19;1471047;95;20977;-96
2023/01/05 15:59:37;;;;;;;11.43;8.45;;;;;;;5.69;94.74;99674.05;1463142;94;21408;-94
2023/01/05 16:02:38;;;;;;;12.05;9.28;;;;;;;5.71;94.85;99658.73;1447463;96;21233;-91
2023/01/05 16:05:32;;;;;;;11.03;8.83;;;;;;;5.73;94.88;99654.76;1413075;100;21118;-94
2023/01/05 16:08:18;;;;;;;13.98;10.30;;;;;;;5.74;94.86;99653.38;1418086;98;21054;-96
2023/01/05 16:11:00;;;;;;;16.97;10.48;;;;;;;5.74;94.93;99655.98;1467296;95;21128;-95
2023/01/05 16:13:59;;;;;;;22.85;13.75;;;;;;;5.74;94.89;99655.98;1498632;93;21222;-96
2023/01/05 20:34:51;;;;;;;15.45;12.30;;;;;;;5.84;96.08;99526.69;1835036;77;21134;-90
2023/01/05 20:37:18;;;;;;;14.47;12.25;;;;;;;5.88;95.74;99513.87;1831023;77;20911;-89
2023/01/05 20:39:45;;;;;;;15.05;11.73;;;;;;;5.90;95.43;99519.36;1825325;77;20951;-89
2023/01/05 20:42:12;;;;;;;13.30;10.80;;;;;;;5.98;95.18;99517.62;1830830;77;21002;-91
2023/01/05 20:44:42;;;;;;;15.85;12.20;;;;;;;6.02;94.95;99515.22;1831586;77;20898;-91
2023/01/05 20:47:10;;;;;;;15.98;12.90;;;;;;;6.10;94.51;99518.22;1821951;77;21200;-90
2023/01/05 20:49:38;;;;;;;15.83;12.63;;;;;;;6.15;94.21;99522.68;1830337;77;20868;-89
2023/01/05 20:52:05;;;;;;;17.90;14.20;;;;;;;6.20;93.82;99517.20;1837531;77;20881;-90
2023/01/05 20:54:34;;;;;;;16.27;12.25;;;;;;;6.20;93.12;99525.87;1834943;77;22310;-91
2023/01/05 20:57:00;;;;;;;17.30;12.63;;;;;;;6.22;92.83;99518.80;1824411;77;20995;-89
2023/01/05 20:59:29;;;;;;;16.70;12.35;;;;;;;6.23;92.48;99519.63;1824516;77;21756;-91
2023/01/05 21:01:56;;;;;;;14.80;11.57;;;;;;;6.24;92.35;99526.50;1837572;78;21461;-90
2023/01/05 21:04:23;;;;;;;15.53;11.55;;;;;;;6.25;92.19;99525.59;1835340;77;20944;-91
2023/01/05 21:06:52;;;;;;;15.88;12.60;;;;;;;6.27;92.14;99528.94;1824921;77;20844;-90
2023/01/05 21:09:20;;;;;;;15.93;12.00;;;;;;;6.30;92.01;99520.11;1833091;77;21006;-88
2023/01/05 21:11:47;;;;;;;14.78;11.68;;;;;;;6.31;91.90;99529.58;1838788;77;21085;-90
2023/01/05 21:14:14;;;;;;;12.80;10.28;;;;;;;6.32;91.92;99527.36;1835061;77;20884;-92
2023/01/05 21:16:47;;;;;;;12.15;9.65;;;;;;;6.33;91.71;99519.44;1810889;77;20888;-91
2023/01/05 21:19:17;;;;;;;11.65;8.95;;;;;;;6.34;91.71;99523.73;1837749;77;20961;-89
2023/01/05 21:21:44;;;;;;;13.93;9.90;;;;;;;6.34;91.49;99521.13;1836412;77;20955;-91
2023/01/05 21:24:11;;;;;;;11.85;9.63;;;;;;;6.32;91.50;99520.37;1836954;78;21091;-91
2023/01/05 21:26:38;;;;;;;13.25;9.45;;;;;;;6.34;91.56;99515.92;1837917;77;20924;-90
2023/01/05 21:29:05;;;;;;;10.08;8.80;;;;;;;6.35;91.54;99516.28;1833121;77;20931;-90
2023/01/05 21:31:32;;;;;;;15.08;9.35;;;;;;;6.39;91.48;99517.77;1835491;77;20924;-90
2023/01/05 21:34:00;;;;;;;11.73;8.95;;;;;;;6.42;91.31;99515.00;1827931;77;21318;-91
2023/01/05 21:36:29;;;;;;;11.40;8.68;;;;;;;6.45;91.14;99515.28;1812015;77;21055;-90
2023/01/05 21:39:01;;;;;;;12.45;9.75;;;;;;;6.46;91.02;99518.23;1825172;77;20864;-91
2023/01/05 21:44:09;;;;;;;12.28;9.20;;;;;;;6.46;90.59;99518.71;1703448;82;20927;-89
2023/01/05 21:46:37;;;;;;;12.23;9.53;;;;;;;6.48;90.44;99521.59;1814618;77;20895;-89
2023/01/05 21:49:05;;;;;;;12.63;9.00;;;;;;;6.50;90.31;99517.12;1823992;77;21256;-88
2023/01/05 21:57:02;;;;;;;11.60;9.28;;;;;;;6.51;89.78;99520.56;1741424;81;20085;-89
2023/01/05 21:59:29;;;;;;;13.15;9.08;;;;;;;6.53;89.87;99517.41;1812179;78;21363;-90
2023/01/05 22:01:57;;;;;;;12.40;9.83;;;;;;;6.57;89.78;99517.59;1836466;77;20912;-89
2023/01/05 22:04:23;;;;;;;11.50;8.53;;;;;;;6.60;89.53;99520.86;1830431;78;20877;-90
2023/01/05 22:06:50;;;;;;;12.43;8.80;;;;;;;6.60;89.30;99529.11;1829882;77;20927;-88
2023/01/05 22:09:16;;;;;;;12.63;10.15;;;;;;;6.59;89.24;99525.67;1811871;77;21370;-88
2023/01/05 22:11:43;;;;;;;12.70;9.00;;;;;;;6.60;89.22;99527.81;1836929;77;20959;-87
2023/01/05 22:14:09;;;;;;;15.83;9.60;;;;;;;6.56;88.95;99525.88;1832370;78;21095;-89
2023/01/05 22:16:36;;;;;;;11.70;8.40;;;;;;;6.55;88.93;99532.47;1839272;77;20923;-88
2023/01/05 22:19:03;;;;;;;11.55;9.68;;;;;;;6.54;88.85;99526.91;1830386;77;20868;-91
2023/01/05 22:21:30;;;;;;;12.43;10.43;;;;;;;6.51;89.02;99531.81;1784746;79;20975;-90
2023/01/05 22:23:56;;;;;;;12.10;8.90;;;;;;;6.51;89.06;99539.62;1752212;81;20891;-90
2023/01/05 22:26:23;;;;;;;13.08;9.30;;;;;;;6.50;89.14;99524.94;1756845;80;21127;-90
2023/01/05 22:28:50;;;;;;;13.53;9.58;;;;;;;6.53;89.25;99533.03;1797955;79;21122;-89
2023/01/05 22:31:26;;;;;;;11.43;8.18;;;;;;;6.55;89.26;99524.66;1797891;79;20988;-89
2023/01/05 22:33:56;;;;;;;12.03;9.13;;;;;;;6.59;89.17;99536.09;1774426;79;20879;-89
2023/01/05 22:36:24;;;;;;;12.35;10.45;;;;;;;6.59;89.16;99532.66;1786444;79;20982;-91
2023/01/05 22:38:51;;;;;;;14.68;9.15;;;;;;;6.60;89.18;99536.92;1752845;81;21373;-90
2023/01/05 22:41:25;;;;;;;11.75;8.85;;;;;;;6.61;89.18;99536.02;1740363;80;20890;-90
2023/01/05 22:43:51;;;;;;;11.90;9.70;;;;;;;6.63;89.22;99536.76;1768301;80;20940;-89
2023/01/05 22:46:20;;;;;;;10.40;7.78;;;;;;;6.66;89.13;99540.47;1772840;80;20952;-90
2023/01/05 22:48:48;;;;;;;11.55;7.97;;;;;;;6.70;88.96;99539.35;1756928;80;20904;-88
2023/01/05 22:51:22;;;;;;;10.95;8.73;;;;;;;6.70;88.75;99542.43;1753344;80;21151;-89
2023/01/05 22:53:49;;;;;;;14.03;9.80;;;;;;;6.70;88.78;99542.43;1794071;79;20885;-87
2023/01/05 22:56:17;;;;;;;11.25;7.67;;;;;;;6.71;88.85;99540.18;1790021;79;21098;-88
2023/01/05 22:58:43;;;;;;;11.65;8.13;;;;;;;6.72;88.88;99539.27;1788407;79;20920;-89
2023/01/05 23:01:15;;;;;;;8.83;7.05;;;;;;;6.75;88.88;99541.67;1795297;79;20928;-86
2023/01/05 23:03:45;;;;;;;10.30;8.13;;;;;;;6.77;88.94;99539.81;1735188;80;21020;-87
2023/01/05 23:06:11;;;;;;;10.00;8.03;;;;;;;6.80;88.97;99537.87;1765112;80;20967;-88
2023/01/05 23:08:39;;;;;;;12.88;7.83;;;;;;;6.82;88.86;99539.05;1838130;78;20908;-89
2023/01/05 23:11:22;;;;;;;9.33;7.03;;;;;;;6.83;88.80;99537.66;1806476;78;20911;-89
2023/01/05 23:13:49;;;;;;;10.38;7.42;;;;;;;6.87;88.78;99542.67;1819979;77;20881;-88
2023/01/05 23:16:16;;;;;;;8.68;7.78;;;;;;;6.86;88.62;99537.94;1818092;77;21164;-88
2023/01/05 23:18:43;;;;;;;8.70;6.30;;;;;;;6.88;88.61;99539.98;1815056;77;20872;-86
2023/01/05 23:21:12;;;;;;;9.05;6.92;;;;;;;6.90;88.82;99541.20;1837660;77;21025;-87
2023/01/05 23:23:39;;;;;;;8.10;6.58;;;;;;;6.87;88.97;99546.14;1828080;77;20979;-85
2023/01/05 23:26:07;;;;;;;9.48;6.47;;;;;;;6.86;89.42;99541.84;1781510;79;21015;-87
2023/01/05 23:28:34;;;;;;;9.53;6.75;;;;;;;6.88;89.73;99533.94;1745340;80;21548;-86
2023/01/05 23:31:01;;;;;;;10.03;6.85;;;;;;;6.93;89.86;99543.60;1769753;80;21504;-89
2023/01/05 23:33:31;;;;;;;9.73;6.42;;;;;;;6.96;89.85;99542.09;1763810;81;21781;-85
2023/01/05 23:35:57;;;;;;;7.87;6.97;;;;;;;6.99;89.76;99537.55;1762107;81;20980;-88
2023/01/05 23:38:25;;;;;;;9.85;7.37;;;;;;;7.01;89.59;99540.06;1772396;80;20963;-88
2023/01/05 23:40:53;;;;;;;11.90;7.58;;;;;;;7.02;89.37;99545.63;1767496;80;21237;-88
2023/01/05 23:43:26;;;;;;;8.80;6.78;;;;;;;7.02;89.08;99532.60;1746001;80;20981;-89
2023/01/05 23:46:04;;;;;;;7.05;6.35;;;;;;;7.03;89.06;99530.38;1757943;80;20881;-89
2023/01/05 23:48:30;;;;;;;8.28;6.28;;;;;;;7.03;88.79;99533.81;1766692;80;21094;-88
2023/01/05 23:50:57;;;;;;;8.55;6.25;;;;;;;7.03;88.93;99536.89;1765472;80;20971;-88
2023/01/05 23:53:24;;;;;;;8.15;6.67;;;;;;;7.07;89.00;99538.38;1740897;80;21486;-89
2023/01/05 23:55:51;;;;;;;10.50;6.50;;;;;;;7.11;88.89;99538.53;1773785;80;20988;-89
2023/01/05 23:58:17;;;;;;;9.93;7.55;;;;;;;7.14;88.66;99542.27;1768594;80;20912;-88
